Time;durP1;ratioP1;P1;durP2;ratioP2;P2;SDS_P1;SDS_P2;PMS_P1;PMS_P2;Temp;Humidity;BMP_temperature;BMP_pressure;BME280_temperature;BME280_humidity;BME280_pressure;Samples;Min_cycle;Max_cycle;Signal;HPM_P1;HPM_P2
2023/03/07 00:00:50;;;;;;;104.50;54.20;;;;;;;-1.04;91.14;96734.56;52376;1257;1016310;-77
2023/03/07 00:03:19;;;;;;;90.80;46.80;;;;;;;-1.03;92.21;96729.15;52407;1254;1051394;-76
2023/03/07 00:05:46;;;;;;;96.20;44.60;;;;;;;-1.04;93.55;96730.77;52413;1258;1016582;-77
2023/03/07 00:08:12;;;;;;;96.30;47.00;;;;;;;-1.07;91.97;96734.55;52246;1254;1143221;-77
2023/03/07 00:10:39;;;;;;;81.70;43.50;;;;;;;-1.06;92.39;96732.44;52435;1254;1061164;-77
2023/03/07 00:13:05;;;;;;;80.00;42.20;;;;;;;-1.06;94.27;96732.28;52399;1254;1018333;-77
2023/03/07 00:15:32;;;;;;;86.50;45.50;;;;;;;-1.07;95.31;96732.33;52391;1254;1075993;-77
2023/03/07 00:17:59;;;;;;;94.30;48.90;;;;;;;-1.06;93.43;96730.00;52405;1254;1016636;-77
2023/03/07 00:20:25;;;;;;;95.80;46.90;;;;;;;-1.04;92.22;96728.70;52456;1257;1071896;-77
2023/03/07 00:22:52;;;;;;;106.30;49.60;;;;;;;-1.01;91.22;96728.45;52369;1254;1016498;-77
2023/03/07 00:25:19;;;;;;;94.90;47.80;;;;;;;-1.00;90.94;96725.13;52381;1254;1073384;-77
2023/03/07 00:27:45;;;;;;;112.00;52.20;;;;;;;-1.01;90.87;96723.67;52383;1254;1016200;-77
2023/03/07 00:30:12;;;;;;;107.80;49.40;;;;;;;-1.01;90.77;96721.34;52372;1257;1050962;-77
2023/03/07 00:32:39;;;;;;;103.40;48.70;;;;;;;-1.04;90.65;96717.00;52407;1257;1019713;-76
2023/03/07 00:35:06;;;;;;;85.20;42.70;;;;;;;-1.03;90.72;96715.85;52430;1254;1061224;-77
2023/03/07 00:37:32;;;;;;;97.00;44.60;;;;;;;-0.99;90.84;96714.23;52400;1254;1016160;-77
2023/03/07 00:39:59;;;;;;;97.00;43.30;;;;;;;-0.96;93.87;96709.17;52450;1254;1075774;-77
2023/03/07 00:42:25;;;;;;;89.60;43.00;;;;;;;-0.92;92.11;96710.66;52374;1254;1016338;-77
2023/03/07 00:44:52;;;;;;;95.90;46.50;;;;;;;-0.89;91.66;96708.79;52381;1254;1069468;-77
2023/03/07 00:47:19;;;;;;;98.80;47.00;;;;;;;-0.86;91.30;96708.31;52434;1257;1016004;-77
2023/03/07 00:49:45;;;;;;;92.70;44.20;;;;;;;-0.82;91.34;96706.94;52443;1254;1073597;-77
2023/03/07 00:52:12;;;;;;;92.60;41.50;;;;;;;-0.79;91.23;96708.73;52366;1258;1015946;-77
2023/03/07 00:54:39;;;;;;;85.00;41.60;;;;;;;-0.80;91.03;96706.70;52350;1254;1051425;-77
2023/03/07 00:57:05;;;;;;;92.00;42.00;;;;;;;-0.79;91.06;96702.56;52420;1257;1016285;-77
2023/03/07 00:59:32;;;;;;;99.30;46.00;;;;;;;-0.85;91.56;96695.70;52392;1260;1060273;-77
2023/03/07 01:01:59;;;;;;;93.80;45.90;;;;;;;-0.91;94.42;96690.34;52403;1254;1015976;-76
2023/03/07 01:04:25;;;;;;;85.40;42.80;;;;;;;-0.92;92.77;96694.64;52410;1254;1073980;-77
2023/03/07 01:06:52;;;;;;;78.00;36.40;;;;;;;-0.95;95.56;96687.65;52425;1254;1018855;-77
2023/03/07 01:09:18;;;;;;;73.20;36.50;;;;;;;-0.99;96.94;96687.16;52410;1254;1071481;-77
2023/03/07 01:11:45;;;;;;;58.80;31.70;;;;;;;-1.05;98.98;96684.27;52421;1254;1018777;-77
2023/03/07 01:14:11;;;;;;;67.10;34.10;;;;;;;-1.08;99.54;96685.56;52382;1258;1071025;-77
2023/03/07 01:16:38;;;;;;;66.20;35.40;;;;;;;-1.07;97.78;96684.89;52376;1254;1016433;-77
2023/03/07 01:19:06;;;;;;;68.50;32.60;;;;;;;-1.07;95.97;96682.18;52409;1254;1054180;-77
2023/03/07 01:21:35;;;;;;;78.70;38.40;;;;;;;-1.10;94.95;96678.88;52430;1254;1015837;-76
2023/03/07 01:24:03;;;;;;;62.00;31.30;;;;;;;-1.13;98.59;96677.86;52407;1254;1016240;-77
2023/03/07 01:26:30;;;;;;;65.90;33.20;;;;;;;-1.16;99.52;96675.16;52398;1256;1016382;-77
2023/03/07 01:28:58;;;;;;;62.70;30.00;;;;;;;-1.16;97.43;96673.40;52423;1254;1058738;-77
2023/03/07 01:31:25;;;;;;;66.20;30.90;;;;;;;-1.19;97.37;96668.83;52460;1254;1015926;-77
2023/03/07 01:33:52;;;;;;;67.40;32.10;;;;;;;-1.22;98.16;96667.34;52450;1254;1016173;-77
2023/03/07 01:36:23;;;;;;;59.40;30.70;;;;;;;-1.25;97.70;96667.61;52374;1254;1076062;-77
2023/03/07 01:38:53;;;;;;;59.60;31.00;;;;;;;-1.25;97.32;96669.09;52378;1254;1073535;-77
2023/03/07 01:41:20;;;;;;;62.90;31.40;;;;;;;-1.28;98.29;96671.48;52422;1254;1016341;-77
2023/03/07 01:43:47;;;;;;;70.90;35.90;;;;;;;-1.37;99.99;96666.30;52356;1254;1016501;-76
2023/03/07 01:46:16;;;;;;;78.60;36.20;;;;;;;-1.41;99.83;96666.33;52413;1254;1070556;-77
2023/03/07 01:48:59;;;;;;;71.60;35.30;;;;;;;-1.46;99.31;96661.19;52416;1254;1015920;-77
2023/03/07 01:51:26;;;;;;;73.50;38.10;;;;;;;-1.51;100.00;96660.09;52407;1254;1069216;-77
2023/03/07 01:53:52;;;;;;;63.90;31.90;;;;;;;-1.50;98.19;96664.52;52401;1254;1016474;-76
2023/03/07 01:56:19;;;;;;;80.80;38.20;;;;;;;-1.51;96.53;96664.48;52389;1254;1073440;-76
2023/03/07 01:58:46;;;;;;;75.60;38.70;;;;;;;-1.53;96.48;96658.36;52366;1254;1016449;-77
2023/03/07 02:01:13;;;;;;;77.70;40.30;;;;;;;-1.52;95.85;96662.34;52405;1259;1053814;-77
2023/03/07 02:03:51;;;;;;;91.90;44.80;;;;;;;-1.56;97.46;96661.14;52416;1257;1016277;-76
2023/03/07 02:06:17;;;;;;;84.60;42.00;;;;;;;-1.58;98.19;96658.81;52382;1254;1058769;-77
2023/03/07 02:08:44;;;;;;;76.20;37.00;;;;;;;-1.62;98.26;96665.64;52386;1254;1016385;-76
2023/03/07 02:11:11;;;;;;;72.60;38.30;;;;;;;-1.67;96.87;96664.80;52430;1254;1075880;-77
2023/03/07 02:13:38;;;;;;;82.80;40.80;;;;;;;-1.70;99.10;96665.42;52396;1259;1015710;-76
2023/03/07 02:16:05;;;;;;;87.30;42.50;;;;;;;-1.72;97.61;96663.81;52396;1254;1073232;-77
2023/03/07 02:18:33;;;;;;;75.10;36.10;;;;;;;-1.76;98.74;96664.04;52409;1254;1015664;-77
2023/03/07 02:21:22;;;;;;;70.70;35.20;;;;;;;-1.80;98.03;96663.38;52341;1254;1073441;-77
2023/03/07 02:23:55;;;;;;;70.10;35.90;;;;;;;-1.88;100.00;96667.45;52389;1257;1073470;-77
2023/03/07 02:26:26;;;;;;;77.20;37.50;;;;;;;-1.90;100.00;96666.49;52456;1258;1070143;-77
2023/03/07 02:28:52;;;;;;;77.00;40.90;;;;;;;-1.92;98.71;96667.10;52389;1254;1062506;-77
2023/03/07 02:31:19;;;;;;;78.70;40.00;;;;;;;-1.91;97.84;96670.94;52360;1261;1016159;-77
2023/03/07 02:33:45;;;;;;;79.80;38.90;;;;;;;-1.91;97.07;96668.92;52402;1254;1053783;-76
2023/03/07 02:36:36;;;;;;;70.80;33.90;;;;;;;-1.93;96.06;96663.67;52377;1258;1015564;-77
2023/03/07 02:39:05;;;;;;;83.80;39.40;;;;;;;-2.00;97.36;96664.61;52377;1254;1049311;-76
2023/03/07 02:41:32;;;;;;;84.60;42.60;;;;;;;-2.01;97.40;96662.14;52365;1254;1016283;-77
2023/03/07 02:43:59;;;;;;;87.10;45.90;;;;;;;-2.07;99.83;96657.18;52350;1259;1016632;-76
2023/03/07 02:46:25;;;;;;;78.10;38.90;;;;;;;-2.08;100.00;96655.17;52421;1254;1073331;-77
2023/03/07 02:48:52;;;;;;;80.80;41.00;;;;;;;-2.09;100.00;96654.25;52455;1254;1019645;-77
2023/03/07 02:51:19;;;;;;;79.30;42.00;;;;;;;-2.09;100.00;96655.91;52376;1254;1070742;-76
2023/03/07 02:53:45;;;;;;;83.50;42.80;;;;;;;-2.04;99.93;96654.27;52404;1254;1016288;-76
2023/03/07 02:56:12;;;;;;;83.20;40.70;;;;;;;-2.02;100.00;96656.53;52348;1257;1070984;-77
2023/03/07 02:58:38;;;;;;;70.10;29.80;;;;;;;-1.97;99.94;96658.71;52376;1257;1017105;-77
2023/03/07 03:01:05;;;;;;;69.00;35.90;;;;;;;-1.91;99.68;96652.84;52429;1257;1053034;-77
2023/03/07 03:03:32;;;;;;;71.90;36.90;;;;;;;-1.93;99.33;96651.09;52348;1254;1016439;-77
2023/03/07 03:05:58;;;;;;;72.70;35.40;;;;;;;-1.90;100.00;96652.27;52371;1254;1058435;-77
2023/03/07 03:08:25;;;;;;;74.50;37.40;;;;;;;-1.87;99.72;96652.82;52405;1254;1018099;-77
2023/03/07 03:10:53;;;;;;;70.30;37.00;;;;;;;-1.89;99.83;96648.64;52399;1257;1077296;-77
2023/03/07 03:13:20;;;;;;;72.70;36.00;;;;;;;-1.92;99.89;96650.48;52411;1259;1015932;-76
2023/03/07 03:15:47;;;;;;;71.30;37.40;;;;;;;-1.90;100.00;96646.05;52356;1254;1068543;-76
2023/03/07 03:18:13;;;;;;;68.60;37.70;;;;;;;-1.87;100.00;96646.41;52420;1254;1015873;-77
2023/03/07 03:20:41;;;;;;;70.90;33.70;;;;;;;-1.83;100.00;96646.15;52334;1257;1072938;-77
2023/03/07 03:23:07;;;;;;;62.00;31.20;;;;;;;-1.82;100.00;96642.92;52386;1257;1015891;-77
2023/03/07 03:25:34;;;;;;;68.20;33.80;;;;;;;-1.80;100.00;96643.40;52366;1260;1050531;-77
2023/03/07 03:28:01;;;;;;;63.90;33.80;;;;;;;-1.76;100.00;96640.20;52352;1257;1016427;-77
2023/03/07 03:30:31;;;;;;;59.70;32.30;;;;;;;-1.71;100.00;96645.02;52392;1258;1058452;-77
2023/03/07 03:32:57;;;;;;;61.10;33.60;;;;;;;-1.67;100.00;96640.20;52442;1258;1016254;-77
2023/03/07 03:35:24;;;;;;;64.80;32.30;;;;;;;-1.62;100.00;96639.89;52397;1254;1015334;-77
2023/03/07 03:37:51;;;;;;;60.50;31.30;;;;;;;-1.58;100.00;96637.63;52383;1258;1076316;-76
2023/03/07 03:40:17;;;;;;;59.60;31.00;;;;;;;-1.55;100.00;96634.80;52418;1257;1016230;-76
2023/03/07 03:42:44;;;;;;;58.20;29.90;;;;;;;-1.53;100.00;96633.16;52384;1254;1072008;-77
2023/03/07 03:45:11;;;;;;;60.20;30.90;;;;;;;-1.51;100.00;96635.91;52378;1253;1016241;-77
2023/03/07 03:47:37;;;;;;;58.90;31.10;;;;;;;-1.51;100.00;96639.20;52410;1254;1072924;-77
2023/03/07 03:50:05;;;;;;;55.90;28.80;;;;;;;-1.50;100.00;96639.54;52424;1256;1016011;-77
2023/03/07 03:52:31;;;;;;;55.10;29.20;;;;;;;-1.52;100.00;96637.97;52416;1259;1051325;-77
2023/03/07 03:54:58;;;;;;;54.60;27.20;;;;;;;-1.50;100.00;96645.00;52386;1256;1015625;-77
2023/03/07 03:57:24;;;;;;;54.10;28.10;;;;;;;-1.48;100.00;96647.06;52363;1254;1060916;-77
2023/03/07 03:59:51;;;;;;;50.30;29.10;;;;;;;-1.45;100.00;96648.87;52348;1254;1016093;-77
2023/03/07 04:02:18;;;;;;;61.40;32.70;;;;;;;-1.39;100.00;96650.16;52405;1254;1076106;-77
2023/03/07 04:04:44;;;;;;;62.30;30.80;;;;;;;-1.32;100.00;96650.45;52360;1257;1016375;-77
2023/03/07 04:07:11;;;;;;;60.60;34.20;;;;;;;-1.25;100.00;96652.13;52402;1254;1072010;-77
2023/03/07 04:09:38;;;;;;;60.50;28.20;;;;;;;-1.21;100.00;96653.33;52413;1258;1015889;-77
2023/03/07 04:12:04;;;;;;;59.60;30.80;;;;;;;-1.15;100.00;96653.90;52375;1258;1071275;-77
2023/03/07 04:14:31;;;;;;;35.80;19.50;;;;;;;-1.11;100.00;96653.66;52413;1258;1018252;-77
2023/03/07 04:16:58;;;;;;;60.40;30.60;;;;;;;-1.05;100.00;96654.34;52397;1268;1051468;-77
2023/03/07 04:19:24;;;;;;;50.40;28.70;;;;;;;-1.04;100.00;96649.30;52381;1257;1018081;-77
2023/03/07 04:21:51;;;;;;;54.60;29.60;;;;;;;-1.02;100.00;96649.79;52368;1254;1061060;-77
2023/03/07 04:24:17;;;;;;;55.20;29.30;;;;;;;-1.01;100.00;96648.00;52464;1254;1016154;-77
2023/03/07 04:26:44;;;;;;;53.60;27.50;;;;;;;-0.99;100.00;96650.27;52405;1254;1076580;-77
2023/03/07 04:29:11;;;;;;;61.40;32.20;;;;;;;-0.98;100.00;96648.73;52383;1258;1016953;-76
2023/03/07 04:31:37;;;;;;;52.20;26.60;;;;;;;-0.97;100.00;96650.34;52446;1254;1074314;-78
2023/03/07 04:34:04;;;;;;;52.20;29.90;;;;;;;-0.94;100.00;96649.81;52410;1254;1015718;-76
2023/03/07 04:36:30;;;;;;;56.10;26.60;;;;;;;-0.92;100.00;96648.05;52340;1254;1073404;-77
2023/03/07 04:38:57;;;;;;;48.90;25.80;;;;;;;-0.90;100.00;96648.55;52378;1254;1015695;-77
2023/03/07 04:41:27;;;;;;;54.10;27.00;;;;;;;-0.88;100.00;96643.95;52386;1257;1051230;-77
2023/03/07 04:43:53;;;;;;;44.80;23.70;;;;;;;-0.86;100.00;96641.91;52410;1254;1016241;-76
2023/03/07 04:46:20;;;;;;;50.40;27.30;;;;;;;-0.84;100.00;96643.61;52439;1254;1016348;-77
2023/03/07 04:48:46;;;;;;;45.00;25.70;;;;;;;-0.83;100.00;96642.27;52331;1254;1057280;-77
2023/03/07 04:51:13;;;;;;;48.90;25.80;;;;;;;-0.82;100.00;96644.05;52395;1254;1018669;-76
2023/03/07 04:53:40;;;;;;;52.30;27.20;;;;;;;-0.80;99.94;96648.93;52371;1254;1073781;-76
2023/03/07 04:56:07;;;;;;;46.50;27.90;;;;;;;-0.79;99.74;96642.81;52375;1257;1016393;-76
2023/03/07 04:58:34;;;;;;;54.60;27.30;;;;;;;-0.82;99.73;96640.35;52405;1254;1071593;-76
2023/03/07 05:01:01;;;;;;;61.10;29.80;;;;;;;-0.80;99.91;96638.82;52384;1257;1016487;-77
2023/03/07 05:03:28;;;;;;;57.30;29.00;;;;;;;-0.77;99.67;96639.05;52390;1257;1070026;-77
2023/03/07 05:05:55;;;;;;;58.20;32.10;;;;;;;-0.73;99.38;96643.46;52365;1257;1018584;-76
2023/03/07 05:08:21;;;;;;;50.90;29.80;;;;;;;-0.73;99.52;96643.69;52427;1257;1054051;-77
2023/03/07 05:10:48;;;;;;;58.60;29.50;;;;;;;-0.66;99.50;96644.80;52431;1259;1016210;-77
2023/03/07 05:13:15;;;;;;;33.70;17.50;;;;;;;-0.54;99.76;96644.27;52388;1259;1058344;-76
2023/03/07 05:15:41;;;;;;;47.30;22.00;;;;;;;-0.36;99.53;96641.08;52383;1254;1016760;-77
2023/03/07 05:18:08;;;;;;;49.30;27.40;;;;;;;-0.25;99.13;96637.40;52460;1254;1075897;-77
2023/03/07 05:20:34;;;;;;;56.80;32.50;;;;;;;-0.23;98.92;96632.64;52349;1256;1016476;-76
2023/03/07 05:23:01;;;;;;;89.20;49.90;;;;;;;-0.22;98.60;96635.15;52432;1254;1071868;-77
2023/03/07 05:25:28;;;;;;;54.10;27.60;;;;;;;-0.21;98.48;96636.23;52417;1254;1016106;-77
2023/03/07 05:27:54;;;;;;;102.00;45.20;;;;;;;-0.14;98.45;96640.53;52368;1258;1073886;-77
2023/03/07 05:30:21;;;;;;;69.90;34.50;;;;;;;-0.11;97.72;96642.00;52419;1254;1016085;-78
2023/03/07 05:32:47;;;;;;;74.20;35.50;;;;;;;-0.15;97.39;96645.04;52438;1259;1054042;-77
2023/03/07 05:35:15;;;;;;;76.50;36.90;;;;;;;-0.21;97.36;96641.34;52392;1259;1016016;-76
2023/03/07 05:37:41;;;;;;;63.50;31.30;;;;;;;-0.26;97.11;96644.55;52416;1254;1058450;-77
2023/03/07 05:40:10;;;;;;;69.20;32.30;;;;;;;-0.32;97.01;96643.63;52411;1254;1015912;-77
2023/03/07 05:42:37;;;;;;;66.60;31.90;;;;;;;-0.35;96.97;96643.20;52358;1254;1073453;-77
2023/03/07 05:45:04;;;;;;;61.70;31.80;;;;;;;-0.35;96.85;96643.70;52456;1259;1015942;-77
2023/03/07 05:47:31;;;;;;;56.00;30.20;;;;;;;-0.35;96.65;96639.75;52492;1254;1068176;-77
2023/03/07 05:49:58;;;;;;;72.60;37.90;;;;;;;-0.35;96.72;96640.70;52403;1256;1016436;-77
2023/03/07 05:52:25;;;;;;;65.60;33.00;;;;;;;-0.32;96.55;96641.09;52375;1256;1072497;-77
2023/03/07 05:54:52;;;;;;;78.40;39.10;;;;;;;-0.32;96.37;96638.69;52495;1257;1016492;-77
2023/03/07 05:57:18;;;;;;;66.20;36.10;;;;;;;-0.32;96.31;96644.86;52420;1256;1053806;-77
2023/03/07 05:59:45;;;;;;;69.20;37.70;;;;;;;-0.30;96.23;96646.96;52434;1254;1016129;-77
2023/03/07 06:02:12;;;;;;;62.60;33.60;;;;;;;-0.26;96.29;96639.55;52433;1258;1058466;-77
2023/03/07 06:04:39;;;;;;;74.20;37.90;;;;;;;-0.26;96.30;96634.76;52556;1253;1016187;-77
2023/03/07 06:07:06;;;;;;;69.10;37.90;;;;;;;-0.24;96.32;96634.05;52469;1254;1076510;-77
2023/03/07 06:09:33;;;;;;;68.70;39.90;;;;;;;-0.20;96.27;96635.28;52422;1254;1016309;-77
2023/03/07 06:12:00;;;;;;;66.40;36.00;;;;;;;-0.16;96.01;96634.88;52532;1257;1069277;-76
2023/03/07 06:14:27;;;;;;;62.40;35.30;;;;;;;-0.11;95.91;96633.38;52404;1258;1016414;-77
2023/03/07 06:16:53;;;;;;;67.20;33.50;;;;;;;-0.08;95.84;96631.36;52431;1254;1070660;-77
2023/03/07 06:19:20;;;;;;;70.20;40.00;;;;;;;-0.06;95.55;96635.70;52508;1256;1017936;-77
2023/03/07 06:21:47;;;;;;;62.00;36.70;;;;;;;-0.05;95.46;96635.98;52435;1259;1050198;-77
2023/03/07 06:24:13;;;;;;;64.00;35.30;;;;;;;-0.06;95.41;96636.23;52459;1259;1016429;-77
2023/03/07 06:26:40;;;;;;;66.20;32.70;;;;;;;-0.03;95.44;96634.56;52420;1254;1061114;-77
2023/03/07 06:29:07;;;;;;;65.20;32.80;;;;;;;-0.02;95.27;96631.42;52434;1254;1015896;-78
2023/03/07 06:31:33;;;;;;;70.20;37.80;;;;;;;-0.02;95.16;96632.55;52460;1254;1076311;-77
2023/03/07 06:34:00;;;;;;;73.40;38.20;;;;;;;0.02;95.10;96633.58;52476;1254;1015876;-77
2023/03/07 06:36:27;;;;;;;65.50;37.10;;;;;;;0.07;95.35;96634.01;52379;1254;1070101;-78
2023/03/07 06:38:53;;;;;;;69.20;37.50;;;;;;;0.15;95.17;96635.17;52413;1254;1016014;-77
2023/03/07 06:41:20;;;;;;;69.50;35.20;;;;;;;0.20;94.77;96632.41;52591;1254;1070868;-77
2023/03/07 06:43:51;;;;;;;63.60;37.20;;;;;;;0.20;94.72;96626.98;52427;1254;1016026;-77
2023/03/07 06:46:19;;;;;;;86.70;41.80;;;;;;;0.25;94.79;96623.84;52485;1254;1053293;-77
2023/03/07 06:48:46;;;;;;;78.70;40.90;;;;;;;0.34;94.54;96619.46;52520;1254;1016281;-77
2023/03/07 06:51:12;;;;;;;156.20;62.90;;;;;;;0.40;94.53;96622.30;52490;1254;1058441;-77
2023/03/07 06:53:40;;;;;;;91.20;47.40;;;;;;;0.50;94.47;96624.84;52414;1255;1016017;-77
2023/03/07 06:56:06;;;;;;;69.40;37.70;;;;;;;0.61;94.63;96631.74;52383;1256;1074279;-78
2023/03/07 06:58:33;;;;;;;72.20;36.70;;;;;;;0.77;94.39;96630.99;52392;1254;1015937;-76
2023/03/07 07:00:59;;;;;;;67.80;35.90;;;;;;;0.89;94.31;96634.33;52488;1254;1068837;-77
2023/03/07 07:03:26;;;;;;;91.30;49.60;;;;;;;1.02;94.00;96632.17;52529;1254;1015803;-77
2023/03/07 07:05:53;;;;;;;81.10;46.10;;;;;;;1.10;93.62;96630.31;52478;1254;1070631;-77
2023/03/07 07:08:19;;;;;;;99.00;52.20;;;;;;;1.15;93.28;96627.21;52583;1254;1016167;-77
2023/03/07 07:10:46;;;;;;;93.90;51.50;;;;;;;1.25;93.26;96629.27;52501;1254;1051138;-77
2023/03/07 07:13:13;;;;;;;55.50;32.90;;;;;;;1.41;93.61;96623.91;52517;1254;1015795;-76
2023/03/07 07:15:40;;;;;;;62.80;36.30;;;;;;;1.59;92.88;96626.29;52631;1257;1057947;-77
2023/03/07 07:18:07;;;;;;;64.10;32.50;;;;;;;1.85;93.01;96623.53;52552;1259;1016905;-77
2023/03/07 07:20:34;;;;;;;46.30;26.40;;;;;;;2.10;92.02;96626.02;52555;1259;1075350;-79
2023/03/07 07:23:01;;;;;;;49.40;26.00;;;;;;;2.44;91.57;96625.38;52445;1257;1016340;-77
2023/03/07 07:25:27;;;;;;;41.90;25.80;;;;;;;2.90;91.23;96626.23;52567;1254;1071864;-75
2023/03/07 07:27:54;;;;;;;44.40;25.90;;;;;;;3.24;89.22;96626.45;52443;1259;1020252;-76
2023/03/07 07:30:21;;;;;;;43.60;19.90;;;;;;;3.71;86.64;96629.39;52468;1254;1070656;-77
2023/03/07 07:32:47;;;;;;;28.90;15.70;;;;;;;4.17;83.59;96624.44;52573;1260;1016411;-77
2023/03/07 07:35:14;;;;;;;22.80;12.50;;;;;;;4.64;81.76;96619.98;52579;1254;1050883;-77
2023/03/07 07:37:41;;;;;;;36.40;19.40;;;;;;;5.09;79.01;96621.09;54018;1254;1015532;-77
2023/03/07 07:40:09;;;;;;;35.70;19.90;;;;;;;5.39;76.37;96622.77;53979;1254;1058233;-77
2023/03/07 07:42:36;;;;;;;30.40;15.40;;;;;;;5.63;74.66;96625.30;53774;1254;1017206;-76
2023/03/07 07:45:03;;;;;;;25.40;14.90;;;;;;;5.82;74.00;96619.34;52545;1254;1015806;-77
2023/03/07 07:47:30;;;;;;;26.80;14.90;;;;;;;5.90;72.91;96622.85;52564;1254;1074024;-77
2023/03/07 07:49:56;;;;;;;23.60;14.30;;;;;;;5.88;71.73;96623.53;52589;1259;1018160;-77
2023/03/07 07:52:23;;;;;;;33.10;17.30;;;;;;;5.97;72.77;96625.48;52592;1254;1071266;-77
2023/03/07 07:54:50;;;;;;;23.10;13.70;;;;;;;6.23;72.22;96621.01;52632;1257;1016783;-77
2023/03/07 07:57:17;;;;;;;22.20;11.70;;;;;;;6.37;69.75;96619.09;52519;1254;1073548;-78
2023/03/07 07:59:43;;;;;;;19.80;13.20;;;;;;;6.15;66.99;96620.83;52529;1254;1016158;-77
2023/03/07 08:02:12;;;;;;;28.60;12.00;;;;;;;5.92;68.14;96623.98;52599;1257;1051293;-76
2023/03/07 08:04:39;;;;;;;20.70;11.70;;;;;;;6.14;67.31;96627.83;52498;1259;1016098;-77
2023/03/07 08:07:06;;;;;;;26.50;13.50;;;;;;;6.35;66.79;96625.52;52498;1259;1016430;-77
2023/03/07 08:09:34;;;;;;;21.70;12.40;;;;;;;6.53;66.75;96628.05;52424;1259;1063180;-77
2023/03/07 08:12:01;;;;;;;17.50;10.00;;;;;;;6.99;64.79;96627.79;52447;1254;1016094;-77
2023/03/07 08:14:27;;;;;;;20.10;13.50;;;;;;;7.35;61.22;96626.58;52437;1254;1074677;-77
2023/03/07 08:16:54;;;;;;;24.20;14.00;;;;;;;7.48;61.73;96620.46;52471;1259;1016086;-77
2023/03/07 08:19:20;;;;;;;16.90;11.00;;;;;;;7.36;62.49;96615.91;52493;1254;1070664;-77
2023/03/07 08:21:47;;;;;;;18.10;11.00;;;;;;;7.00;61.63;96612.22;52702;1255;1016040;-77
2023/03/07 08:24:14;;;;;;;19.20;10.50;;;;;;;6.63;61.45;96606.94;52432;1254;1070559;-77
2023/03/07 08:26:40;;;;;;;13.80;9.70;;;;;;;6.40;61.77;96603.22;52487;1254;1016247;-77
2023/03/07 08:29:07;;;;;;;18.00;10.20;;;;;;;6.20;62.47;96599.70;52443;1259;1051396;-78
2023/03/07 08:31:33;;;;;;;23.50;11.20;;;;;;;6.09;62.65;96595.98;52461;1259;1016331;-77
2023/03/07 08:34:00;;;;;;;14.50;8.70;;;;;;;6.06;63.02;96597.41;52475;1254;1060752;-77
2023/03/07 08:36:27;;;;;;;18.70;9.90;;;;;;;5.91;62.50;96598.80;52405;1254;1016075;-77
2023/03/07 08:38:53;;;;;;;16.60;8.70;;;;;;;5.84;62.76;96595.73;52381;1260;1075956;-77
2023/03/07 08:41:21;;;;;;;21.00;9.60;;;;;;;5.79;62.45;96600.14;52449;1259;1016291;-77
2023/03/07 08:43:47;;;;;;;18.70;11.10;;;;;;;5.66;62.42;96599.55;52468;1259;1069700;-77
2023/03/07 08:46:14;;;;;;;16.00;9.60;;;;;;;5.75;62.02;96600.11;52525;1258;1016155;-77
2023/03/07 08:48:41;;;;;;;17.50;9.70;;;;;;;5.82;61.75;96606.07;52372;1254;1071889;-77
2023/03/07 08:51:10;;;;;;;13.20;8.50;;;;;;;5.88;61.82;96601.43;52460;1254;1016900;-78
2023/03/07 08:53:37;;;;;;;16.70;10.70;;;;;;;5.94;61.62;96604.27;52451;1254;1053834;-77
2023/03/07 08:56:07;;;;;;;14.10;8.90;;;;;;;6.06;61.06;96601.83;52538;1255;1016009;-77
2023/03/07 08:58:34;;;;;;;16.20;7.40;;;;;;;5.96;59.91;96602.84;52437;1260;1058804;-77
2023/03/07 09:01:02;;;;;;;13.00;7.50;;;;;;;5.95;59.88;96604.08;52473;1254;1015886;-77
2023/03/07 09:03:29;;;;;;;15.70;8.80;;;;;;;5.87;59.10;96601.73;52500;1254;1073003;-77
2023/03/07 09:05:55;;;;;;;14.60;8.80;;;;;;;5.73;59.07;96598.99;52415;1254;1015999;-77
2023/03/07 09:08:22;;;;;;;15.80;7.70;;;;;;;5.63;59.34;96599.35;52457;1257;1069427;-77
2023/03/07 09:10:49;;;;;;;15.40;9.10;;;;;;;5.58;59.26;96605.09;52406;1254;1016207;-77
2023/03/07 09:13:17;;;;;;;15.70;8.70;;;;;;;5.64;59.41;96607.20;52436;1257;1070425;-77
2023/03/07 09:15:43;;;;;;;17.00;9.60;;;;;;;5.53;59.00;96602.55;52349;1254;1016094;-77
2023/03/07 09:18:10;;;;;;;17.50;9.60;;;;;;;5.49;59.70;96597.98;52379;1260;1054198;-77
2023/03/07 09:20:37;;;;;;;18.60;9.00;;;;;;;5.49;60.14;96594.16;52386;1258;1016113;-77
2023/03/07 09:23:04;;;;;;;14.50;7.40;;;;;;;5.51;59.65;96592.79;52372;1254;1058159;-77
2023/03/07 09:25:31;;;;;;;41.80;19.70;;;;;;;5.56;59.99;96589.79;52430;1254;1017687;-77
2023/03/07 09:27:58;;;;;;;16.00;9.80;;;;;;;5.61;60.69;96590.13;52408;1259;1073798;-77
2023/03/07 09:30:27;;;;;;;19.40;9.10;;;;;;;5.65;60.22;96590.58;52370;1254;1016408;-77
2023/03/07 09:32:53;;;;;;;17.00;10.30;;;;;;;5.73;60.78;96587.98;52409;1260;1069093;-77
2023/03/07 09:35:20;;;;;;;12.70;8.10;;;;;;;5.81;59.99;96589.20;52387;1260;1016440;-77
2023/03/07 09:37:46;;;;;;;14.30;8.40;;;;;;;5.82;60.33;96587.41;52361;1258;1070282;-77
2023/03/07 09:40:17;;;;;;;18.30;10.90;;;;;;;5.89;60.26;96580.25;52400;1254;1016322;-77
2023/03/07 09:42:49;;;;;;;13.60;7.90;;;;;;;5.89;59.47;96577.35;52392;1254;1052122;-77
2023/03/07 09:45:22;;;;;;;12.70;7.90;;;;;;;5.96;59.42;96577.84;52397;1266;1051376;-77
2023/03/07 09:47:56;;;;;;;16.70;9.90;;;;;;;6.01;59.39;96581.62;52409;1259;1051132;-77
2023/03/07 09:50:32;;;;;;;19.90;9.10;;;;;;;6.08;60.14;96578.58;52458;1258;1052360;-77
2023/03/07 09:53:01;;;;;;;16.10;8.00;;;;;;;6.12;60.19;96576.48;52439;1260;1050959;-77
2023/03/07 09:55:28;;;;;;;16.00;8.80;;;;;;;6.08;59.56;96574.27;52499;1259;1015380;-78
2023/03/07 09:57:57;;;;;;;15.60;8.70;;;;;;;6.11;59.70;96568.38;52389;1257;1016479;-78
2023/03/07 10:00:32;;;;;;;18.80;9.30;;;;;;;6.13;59.54;96567.91;52484;1259;1058710;-78
2023/03/07 10:03:13;;;;;;;23.80;11.00;;;;;;;6.25;60.20;96573.21;52531;1259;1058144;-77
2023/03/07 10:05:50;;;;;;;15.50;9.00;;;;;;;6.36;59.87;96566.47;52422;1259;1058832;-77
2023/03/07 10:08:21;;;;;;;14.30;9.10;;;;;;;6.39;59.48;96569.93;52391;1258;1058237;-78
2023/03/07 10:10:55;;;;;;;13.10;8.10;;;;;;;6.36;58.90;96569.54;52323;1259;1058748;-78
2023/03/07 10:13:46;;;;;;;17.00;8.30;;;;;;;6.41;58.43;96561.68;52392;1259;1061371;-78
2023/03/07 10:16:29;;;;;;;14.50;8.50;;;;;;;6.33;58.38;96558.17;52444;1254;1060849;-77
2023/03/07 10:19:04;;;;;;;13.70;7.70;;;;;;;6.44;58.30;96553.55;52430;1254;1060912;-77
2023/03/07 10:22:09;;;;;;;13.90;8.20;;;;;;;6.44;57.86;96551.64;52541;1254;1058776;-77
2023/03/07 10:24:46;;;;;;;13.60;8.40;;;;;;;6.50;57.44;96554.09;52487;1254;1062097;-77
2023/03/07 10:27:13;;;;;;;15.20;7.70;;;;;;;6.51;56.72;96556.81;52419;1260;1058132;-77
2023/03/07 10:29:54;;;;;;;14.70;8.50;;;;;;;6.46;56.25;96552.47;52391;1254;1015778;-77
2023/03/07 10:32:46;;;;;;;13.50;7.80;;;;;;;6.59;56.69;96552.84;52482;1260;1076108;-77
2023/03/07 10:35:41;;;;;;;19.40;11.60;;;;;;;6.62;55.89;96551.94;52424;1258;1073599;-78
2023/03/07 10:38:22;;;;;;;19.70;10.20;;;;;;;6.63;56.80;96551.48;52385;1260;1075876;-77
2023/03/07 10:41:00;;;;;;;14.80;7.90;;;;;;;6.57;56.50;96548.14;52479;1267;1076410;-76
2023/03/07 10:43:31;;;;;;;12.40;7.70;;;;;;;6.45;56.48;96541.67;52653;1259;1074115;-76
2023/03/07 10:46:08;;;;;;;14.70;7.40;;;;;;;6.35;56.95;96529.27;52526;1257;1075903;-77
2023/03/07 10:48:37;;;;;;;16.20;9.30;;;;;;;6.37;57.56;96529.71;52427;1254;1076233;-77
2023/03/07 10:51:46;;;;;;;21.10;9.70;;;;;;;6.46;57.51;96523.20;52731;1259;1015901;-78
2023/03/07 10:54:15;;;;;;;13.90;7.50;;;;;;;6.77;56.19;96519.05;52784;1260;1074033;-76
2023/03/07 10:57:09;;;;;;;35.00;18.20;;;;;;;6.84;56.16;96519.16;52746;1260;1016289;-76
2023/03/07 10:59:42;;;;;;;24.70;14.80;;;;;;;7.04;55.66;96520.63;52783;1257;1073750;-77
2023/03/07 11:02:29;;;;;;;18.60;10.60;;;;;;;7.23;56.08;96514.09;52690;1259;1073033;-76
2023/03/07 11:04:57;;;;;;;23.80;15.50;;;;;;;7.44;55.62;96512.35;52793;1258;1073426;-75
2023/03/07 11:07:31;;;;;;;19.10;9.80;;;;;;;7.68;56.24;96506.21;52704;1254;1016244;-77
2023/03/07 11:09:59;;;;;;;19.00;11.10;;;;;;;7.80;53.71;96501.48;52607;1259;1069655;-76